createdAt,value
2022-10-19T00:01:21.595Z,23.40
2022-10-19T00:03:51.490Z,23.40
2022-10-19T00:06:30.910Z,23.40
2022-10-19T00:09:00.546Z,23.40
2022-10-19T00:11:28.395Z,23.30
2022-10-19T00:13:56.294Z,23.40
2022-10-19T00:16:24.502Z,23.30
2022-10-19T00:18:51.272Z,23.30
2022-10-19T00:21:19.499Z,23.30
2022-10-19T00:23:46.780Z,23.30
2022-10-19T00:26:14.254Z,23.30
2022-10-19T00:28:42.129Z,23.30
2022-10-19T00:31:12.572Z,23.30
2022-10-19T00:33:39.952Z,23.20
2022-10-19T00:36:14.369Z,23.30
2022-10-19T00:38:42.253Z,23.20
2022-10-19T00:41:08.945Z,23.20
2022-10-19T00:44:02.960Z,23.20
2022-10-19T00:46:33.445Z,23.20
2022-10-19T00:49:22.089Z,23.20
2022-10-19T00:51:54.389Z,23.20
2022-10-19T00:54:22.054Z,23.20
2022-10-19T00:56:51.480Z,23.20
2022-10-19T00:59:21.301Z,23.20
2022-10-19T01:01:49.622Z,23.20
2022-10-19T01:04:16.660Z,23.10
2022-10-19T01:06:43.547Z,23.10
2022-10-19T01:09:10.369Z,23.10
2022-10-19T01:11:54.860Z,23.10
2022-10-19T01:14:43.382Z,23.10
2022-10-19T01:17:36.727Z,23.10
2022-10-19T01:20:41.023Z,23.10
2022-10-19T01:23:55.676Z,23.10
2022-10-19T01:26:48.367Z,23.10
2022-10-19T01:29:18.783Z,23.10
2022-10-19T01:31:52.020Z,23.00
2022-10-19T01:34:55.056Z,23.00
2022-10-19T01:37:49.664Z,23.00
2022-10-19T01:40:28.100Z,23.00
2022-10-19T01:43:02.956Z,23.00
2022-10-19T01:45:52.468Z,23.00
2022-10-19T01:48:25.005Z,23.00
2022-10-19T01:50:57.970Z,23.00
2022-10-19T01:53:27.828Z,23.00
2022-10-19T01:55:56.430Z,23.00
2022-10-19T01:58:28.079Z,23.00
2022-10-19T02:00:58.484Z,23.00
2022-10-19T02:03:26.745Z,22.90
2022-10-19T02:05:54.159Z,22.90
2022-10-19T02:08:28.368Z,22.90
2022-10-19T02:10:56.535Z,22.90
2022-10-19T02:13:24.479Z,22.90
2022-10-19T02:15:54.909Z,22.90
2022-10-19T02:18:30.819Z,22.90
2022-10-19T02:20:58.110Z,22.90
2022-10-19T02:23:26.931Z,22.90
2022-10-19T02:25:54.795Z,22.90
2022-10-19T02:28:22.420Z,22.90
2022-10-19T02:30:49.437Z,22.90
2022-10-19T02:33:16.516Z,22.90
2022-10-19T02:35:43.468Z,22.80
2022-10-19T02:38:15.589Z,22.90
2022-10-19T02:40:47.759Z,22.90
2022-10-19T02:43:19.298Z,22.80
2022-10-19T02:46:18.158Z,22.80
2022-10-19T02:48:45.233Z,22.80
2022-10-19T02:51:28.188Z,22.80
2022-10-19T02:53:54.947Z,22.80
2022-10-19T02:56:21.656Z,22.80
2022-10-19T02:58:48.360Z,22.80
2022-10-19T03:01:15.026Z,22.80
2022-10-19T03:03:41.779Z,22.80
2022-10-19T03:06:08.491Z,22.80
2022-10-19T03:08:35.144Z,22.80
2022-10-19T03:11:01.871Z,22.80
2022-10-19T03:13:28.548Z,22.80
2022-10-19T03:15:55.201Z,22.80
2022-10-19T03:18:21.959Z,22.70
2022-10-19T03:20:48.611Z,22.70
2022-10-19T03:23:15.267Z,22.70
2022-10-19T03:25:41.928Z,22.70
2022-10-19T03:28:08.591Z,22.70
2022-10-19T03:30:35.275Z,22.70
2022-10-19T03:33:01.925Z,22.60
2022-10-19T03:35:28.631Z,22.60
2022-10-19T03:37:55.349Z,22.60
2022-10-19T03:40:22.083Z,22.60
2022-10-19T03:42:48.803Z,22.60
2022-10-19T03:45:15.723Z,22.60
2022-10-19T03:47:42.388Z,22.60
2022-10-19T03:50:11.301Z,22.60
2022-10-19T03:52:37.977Z,22.60
2022-10-19T03:55:04.978Z,22.60
2022-10-19T03:57:32.021Z,22.60
2022-10-19T03:59:58.931Z,22.60
2022-10-19T04:02:25.586Z,22.60
2022-10-19T04:04:52.348Z,22.60
2022-10-19T04:07:19.009Z,22.50
2022-10-19T04:09:45.746Z,22.50
2022-10-19T04:12:12.440Z,22.50
2022-10-19T04:14:56.378Z,22.50
2022-10-19T04:17:23.956Z,22.50
2022-10-19T04:19:50.616Z,22.50
2022-10-19T04:26:04.020Z,22.50
2022-10-19T04:28:31.156Z,22.40
2022-10-19T04:31:01.514Z,22.40
2022-10-19T04:33:28.268Z,22.40
2022-10-19T04:35:59.862Z,22.40
2022-10-19T04:38:26.931Z,22.40
2022-10-19T04:40:53.914Z,22.30
2022-10-19T04:43:20.873Z,22.30
2022-10-19T04:45:47.576Z,22.30
2022-10-19T04:48:15.214Z,22.30
2022-10-19T04:50:42.052Z,22.30
2022-10-19T04:53:08.747Z,22.30
2022-10-19T04:55:40.811Z,22.20
2022-10-19T04:58:07.570Z,22.20
2022-10-19T05:00:34.344Z,22.20
2022-10-19T05:03:01.024Z,22.20
2022-10-19T05:05:27.691Z,22.20
2022-10-19T05:07:54.347Z,22.20
2022-10-19T05:10:21.035Z,22.20
2022-10-19T05:12:47.786Z,22.20
2022-10-19T05:15:14.456Z,22.20
2022-10-19T05:17:41.128Z,22.20
2022-10-19T05:20:08.436Z,22.10
2022-10-19T05:22:35.093Z,22.10
2022-10-19T05:25:01.929Z,22.10
2022-10-19T05:27:28.588Z,22.10
2022-10-19T05:29:55.242Z,22.10
2022-10-19T05:32:21.933Z,22.10
2022-10-19T05:34:48.637Z,22.10
2022-10-19T05:37:16.925Z,22.10
2022-10-19T05:39:43.842Z,22.00
2022-10-19T05:42:10.534Z,22.00
2022-10-19T05:47:08.985Z,22.00
2022-10-19T05:49:35.789Z,22.00
2022-10-19T05:52:02.447Z,22.00
2022-10-19T05:54:29.124Z,22.00
2022-10-19T05:56:56.142Z,22.00
2022-10-19T05:59:23.881Z,22.00
2022-10-19T06:01:50.684Z,22.00
2022-10-19T06:06:49.031Z,22.10
2022-10-19T06:09:15.852Z,22.10
2022-10-19T06:11:43.132Z,22.10
2022-10-19T06:14:13.928Z,22.20
2022-10-19T06:16:41.037Z,22.20
2022-10-19T06:19:07.779Z,22.20
2022-10-19T06:21:34.943Z,22.20
2022-10-19T06:24:04.018Z,22.20
2022-10-19T06:26:32.281Z,22.20
2022-10-19T06:29:00.625Z,22.30
2022-10-19T06:31:28.783Z,22.30
2022-10-19T06:33:56.026Z,22.30
2022-10-19T06:36:25.042Z,22.30
2022-10-19T06:38:53.198Z,22.30
2022-10-19T06:41:20.751Z,22.30
2022-10-19T06:43:51.719Z,22.30
2022-10-19T06:46:20.679Z,22.30
2022-10-19T06:48:58.484Z,22.30
2022-10-19T06:51:27.175Z,22.30
2022-10-19T06:53:57.237Z,22.30
2022-10-19T06:56:26.312Z,22.30
2022-10-19T06:58:53.946Z,22.30
2022-10-19T07:01:21.050Z,22.30
2022-10-19T07:03:47.860Z,22.30
2022-10-19T07:06:14.621Z,22.30
2022-10-19T07:08:42.666Z,22.40
2022-10-19T07:11:12.122Z,22.40
2022-10-19T07:13:39.066Z,22.40
2022-10-19T07:16:15.944Z,22.40
2022-10-19T07:18:47.025Z,22.40
2022-10-19T07:21:15.624Z,22.40
2022-10-19T07:23:44.505Z,22.40
2022-10-19T07:26:12.697Z,22.40
2022-10-19T07:28:40.871Z,22.40
2022-10-19T07:31:13.441Z,22.40
2022-10-19T07:33:40.127Z,22.40
2022-10-19T07:36:08.768Z,22.40
2022-10-19T07:38:35.722Z,22.40
2022-10-19T07:41:03.954Z,22.50
2022-10-19T07:43:30.640Z,22.50
2022-10-19T07:45:58.925Z,22.50
2022-10-19T07:48:25.677Z,22.50
2022-10-19T07:50:52.355Z,22.60
2022-10-19T07:53:19.321Z,22.60
2022-10-19T07:55:46.034Z,22.80
2022-10-19T07:58:12.740Z,22.80
2022-10-19T08:03:57.176Z,22.90
2022-10-19T08:06:06.478Z,22.90
2022-10-19T08:08:33.725Z,22.90
2022-10-19T08:11:11.892Z,22.90
2022-10-19T08:13:39.205Z,22.80
2022-10-19T08:16:19.960Z,22.80
2022-10-19T08:18:46.809Z,22.80
2022-10-19T08:21:13.488Z,22.80
2022-10-19T08:23:41.431Z,22.80
2022-10-19T08:26:08.369Z,22.80
2022-10-19T08:28:35.155Z,22.80
2022-10-19T08:31:20.839Z,22.80
2022-10-19T08:33:50.257Z,22.80
2022-10-19T08:36:17.194Z,22.80
2022-10-19T08:38:45.065Z,22.80
2022-10-19T08:41:22.432Z,22.80
2022-10-19T08:44:10.161Z,22.90
2022-10-19T08:46:55.263Z,22.90
2022-10-19T08:49:24.891Z,23.00
2022-10-19T08:51:58.241Z,23.10
2022-10-19T08:54:32.252Z,23.10
2022-10-19T08:57:14.264Z,23.10
2022-10-19T08:59:49.075Z,23.10
2022-10-19T09:02:26.835Z,23.10
2022-10-19T09:05:05.592Z,23.10
2022-10-19T09:07:40.153Z,23.10
2022-10-19T09:10:28.893Z,23.20
2022-10-19T09:13:07.864Z,23.20
2022-10-19T09:15:43.929Z,23.30
2022-10-19T09:18:28.129Z,23.30
2022-10-19T09:21:03.841Z,23.40
2022-10-19T09:23:40.650Z,23.40
2022-10-19T09:26:19.244Z,23.40
2022-10-19T09:28:52.468Z,23.50
2022-10-19T09:31:31.891Z,23.50
2022-10-19T09:34:14.119Z,23.50
2022-10-19T09:36:50.497Z,23.40
2022-10-19T09:39:18.621Z,23.40
2022-10-19T09:41:57.066Z,23.40
2022-10-19T09:45:36.618Z,23.40
2022-10-19T09:48:14.051Z,23.40
2022-10-19T09:50:44.735Z,23.30
2022-10-19T09:53:21.702Z,23.30
2022-10-19T09:55:57.366Z,23.30
2022-10-19T09:58:29.230Z,23.30
2022-10-19T10:00:59.966Z,23.30
2022-10-19T10:03:40.337Z,23.20
2022-10-19T10:06:15.434Z,23.30
2022-10-19T10:08:52.632Z,23.30
2022-10-19T10:11:32.940Z,23.30
2022-10-19T10:14:09.154Z,23.20
2022-10-19T10:16:36.873Z,23.30
2022-10-19T10:19:07.672Z,23.30
2022-10-19T10:21:45.748Z,23.30
2022-10-19T10:24:12.421Z,23.30
2022-10-19T10:26:45.205Z,23.30
2022-10-19T10:29:24.509Z,23.30
2022-10-19T10:31:55.696Z,23.30
2022-10-19T10:34:50.155Z,23.30
2022-10-19T10:37:23.527Z,23.30
2022-10-19T10:39:56.831Z,23.30
2022-10-19T10:42:40.437Z,23.30
2022-10-19T10:45:39.453Z,23.40
2022-10-19T10:48:33.416Z,23.40
2022-10-19T10:51:01.621Z,23.40
2022-10-19T10:53:32.856Z,23.30
2022-10-19T10:55:59.655Z,23.40
2022-10-19T10:58:47.853Z,23.30
2022-10-19T11:01:23.453Z,23.30
2022-10-19T11:03:57.233Z,23.30
2022-10-19T11:06:26.508Z,23.30
2022-10-19T11:08:56.879Z,23.30
2022-10-19T11:11:36.096Z,23.30
2022-10-19T11:14:25.398Z,23.30
2022-10-19T11:16:55.484Z,23.30
2022-10-19T11:19:42.137Z,23.30
2022-10-19T11:22:31.989Z,23.30
2022-10-19T11:25:13.603Z,23.30
2022-10-19T11:28:13.937Z,23.30
2022-10-19T11:31:02.322Z,23.30
2022-10-19T11:33:44.346Z,23.30
2022-10-19T11:36:34.416Z,23.30
2022-10-19T11:39:22.054Z,23.30
2022-10-19T11:41:53.321Z,23.30
2022-10-19T11:44:51.643Z,23.30
2022-10-19T11:47:40.039Z,23.30
2022-10-19T11:50:32.183Z,23.30
2022-10-19T11:53:14.395Z,23.30
2022-10-19T11:55:44.247Z,23.40
2022-10-19T11:58:28.923Z,23.40
2022-10-19T12:01:16.948Z,23.40
2022-10-19T12:03:46.401Z,23.40
2022-10-19T12:06:31.665Z,23.40
2022-10-19T12:09:14.090Z,23.40
2022-10-19T12:11:55.937Z,23.40
2022-10-19T12:14:32.057Z,23.40
2022-10-19T12:17:05.831Z,23.40
2022-10-19T12:19:38.441Z,23.40
2022-10-19T12:22:07.401Z,23.40
2022-10-19T12:24:35.229Z,23.40
2022-10-19T12:27:02.469Z,23.40
2022-10-19T12:29:35.991Z,23.50
2022-10-19T12:32:04.455Z,23.40
2022-10-19T12:34:34.160Z,23.50
2022-10-19T12:37:11.881Z,23.40
2022-10-19T12:39:51.671Z,23.50
2022-10-19T12:42:28.335Z,23.40
2022-10-19T12:45:34.768Z,23.40
2022-10-19T12:48:14.275Z,23.50
2022-10-19T12:50:49.849Z,23.50
2022-10-19T12:53:23.639Z,23.40
2022-10-19T12:56:09.727Z,23.50
2022-10-19T12:58:46.688Z,23.40
2022-10-19T13:01:37.799Z,23.40
2022-10-19T13:04:26.879Z,23.40
2022-10-19T13:06:56.187Z,23.40
2022-10-19T13:09:41.851Z,23.40
2022-10-19T13:12:17.756Z,23.40
2022-10-19T13:15:02.497Z,23.40
2022-10-19T13:17:37.703Z,23.40
2022-10-19T13:20:13.438Z,23.30
2022-10-19T13:22:59.289Z,23.30
2022-10-19T13:25:36.364Z,23.30
2022-10-19T13:28:17.823Z,23.30
2022-10-19T13:30:44.558Z,23.30
2022-10-19T13:33:29.028Z,23.30
2022-10-19T13:35:58.807Z,23.30
2022-10-19T13:38:33.612Z,23.30
2022-10-19T13:41:25.863Z,23.30
2022-10-19T13:44:09.052Z,23.30
2022-10-19T13:46:47.789Z,23.20
2022-10-19T13:49:33.567Z,23.30
2022-10-19T13:52:18.887Z,23.20
2022-10-19T13:55:13.225Z,23.20
2022-10-19T13:58:19.398Z,23.20
2022-10-19T14:01:07.176Z,23.20
2022-10-19T14:04:17.374Z,23.20
2022-10-19T14:06:52.582Z,23.20
2022-10-19T14:09:49.083Z,23.20
2022-10-19T14:12:27.605Z,23.20
2022-10-19T14:14:54.876Z,23.20
2022-10-19T14:17:28.536Z,23.20
2022-10-19T14:19:57.818Z,23.10
2022-10-19T14:22:30.150Z,23.20
2022-10-19T14:25:21.369Z,23.10
2022-10-19T14:27:56.206Z,23.10
2022-10-19T14:30:33.765Z,23.10
2022-10-19T14:33:06.878Z,23.10
2022-10-19T14:35:36.466Z,23.10
2022-10-19T14:38:05.591Z,23.10
2022-10-19T14:40:37.775Z,23.10
2022-10-19T14:43:22.629Z,23.10
2022-10-19T14:46:07.715Z,23.10
2022-10-19T14:48:36.230Z,23.10
2022-10-19T14:51:07.550Z,23.10
2022-10-19T14:53:42.561Z,23.10
2022-10-19T14:56:55.813Z,23.10
2022-10-19T14:59:29.944Z,23.10
2022-10-19T15:02:00.269Z,23.10
2022-10-19T15:04:31.391Z,23.10
2022-10-19T15:07:00.786Z,23.10
2022-10-19T15:09:37.471Z,23.00
2022-10-19T15:12:16.772Z,23.00
2022-10-19T15:14:44.506Z,23.10
2022-10-19T15:17:31.410Z,23.00
2022-10-19T15:20:02.709Z,23.00
2022-10-19T15:22:32.481Z,23.00
2022-10-19T15:25:19.679Z,23.00
2022-10-19T15:27:49.996Z,23.00
2022-10-19T15:30:21.150Z,23.00
2022-10-19T15:32:50.816Z,23.00
2022-10-19T15:35:33.895Z,23.00
2022-10-19T15:38:10.133Z,23.00
2022-10-19T15:40:39.809Z,23.00
2022-10-19T15:43:24.863Z,22.90
2022-10-19T15:46:00.599Z,22.90
2022-10-19T15:48:44.769Z,22.90
2022-10-19T15:51:36.677Z,23.00
2022-10-19T15:54:06.072Z,22.90
2022-10-19T15:56:38.557Z,22.90
2022-10-19T15:59:15.420Z,22.90
2022-10-19T16:01:43.322Z,22.90
2022-10-19T16:04:10.121Z,22.90
2022-10-19T16:06:39.175Z,22.90
2022-10-19T16:09:07.195Z,22.90
2022-10-19T16:11:35.333Z,22.90
2022-10-19T16:14:02.378Z,22.90
2022-10-19T16:16:32.306Z,22.90
2022-10-19T16:19:00.335Z,22.90
2022-10-19T16:21:30.568Z,22.80
2022-10-19T16:23:57.370Z,22.80
2022-10-19T16:26:26.035Z,22.80
2022-10-19T16:28:54.375Z,22.80
2022-10-19T16:31:21.968Z,22.80
2022-10-19T16:33:48.683Z,22.80
2022-10-19T16:36:15.526Z,22.80
2022-10-19T16:38:42.438Z,22.80
2022-10-19T16:41:10.689Z,22.80
2022-10-19T16:43:37.910Z,22.80
2022-10-19T16:46:05.283Z,22.80
2022-10-19T16:48:32.268Z,22.80
2022-10-19T16:51:10.301Z,22.80
2022-10-19T16:53:38.484Z,22.80
2022-10-19T16:56:07.452Z,22.80
2022-10-19T16:58:34.520Z,22.80
2022-10-19T17:01:10.891Z,22.80
2022-10-19T17:03:37.849Z,22.80
2022-10-19T17:06:08.329Z,22.70
2022-10-19T17:08:37.054Z,22.70
2022-10-19T17:11:22.383Z,22.70
2022-10-19T17:13:50.855Z,22.70
2022-10-19T17:16:19.409Z,22.70
2022-10-19T17:18:46.850Z,22.70
2022-10-19T17:21:19.969Z,22.70
2022-10-19T17:23:46.918Z,22.70
2022-10-19T17:26:13.955Z,22.70
2022-10-19T17:28:41.068Z,22.70
2022-10-19T17:31:13.467Z,22.70
2022-10-19T17:33:41.414Z,22.80
2022-10-19T17:36:14.109Z,22.80
2022-10-19T17:38:41.481Z,22.80
2022-10-19T17:41:16.517Z,22.80
2022-10-19T17:43:45.744Z,22.80
2022-10-19T17:46:14.581Z,22.90
2022-10-19T17:48:42.682Z,22.90
2022-10-19T17:51:19.309Z,22.90
2022-10-19T17:53:47.745Z,22.90
2022-10-19T17:56:17.505Z,22.90
2022-10-19T17:58:44.389Z,22.90
2022-10-19T18:01:12.135Z,22.90
2022-10-19T18:03:39.839Z,22.90
2022-10-19T18:06:12.361Z,23.00
2022-10-19T18:08:42.429Z,23.00
2022-10-19T18:11:10.874Z,23.00
2022-10-19T18:13:39.602Z,23.00
2022-10-19T18:16:10.213Z,23.00
2022-10-19T18:18:39.555Z,23.00
2022-10-19T18:21:11.856Z,23.00
2022-10-19T18:23:39.321Z,23.10
2022-10-19T18:26:13.488Z,23.10
2022-10-19T18:28:41.083Z,23.00
2022-10-19T18:31:08.937Z,22.90
2022-10-19T18:33:36.171Z,22.80
2022-10-19T18:36:03.221Z,22.80
2022-10-19T18:38:29.904Z,22.60
2022-10-19T18:41:04.628Z,22.60
2022-10-19T18:43:31.511Z,22.50
2022-10-19T18:45:59.429Z,22.50
2022-10-19T18:48:28.507Z,22.50
2022-10-19T18:50:56.298Z,22.40
2022-10-19T18:53:23.237Z,22.40
2022-10-19T18:56:07.430Z,22.30
2022-10-19T18:58:34.894Z,22.30
2022-10-19T19:01:08.555Z,22.20
2022-10-19T19:03:35.972Z,22.20
2022-10-19T19:06:04.934Z,22.20
2022-10-19T19:08:31.692Z,22.10
2022-10-19T19:11:11.003Z,22.10
2022-10-19T19:13:38.436Z,22.10
2022-10-19T19:16:05.455Z,22.10
2022-10-19T19:18:34.062Z,22.10
2022-10-19T19:21:03.088Z,22.00
2022-10-19T19:23:30.019Z,22.00
2022-10-19T19:25:57.133Z,22.00
2022-10-19T19:28:23.841Z,22.00
2022-10-19T19:30:50.526Z,22.00
2022-10-19T19:33:17.328Z,21.90
2022-10-19T19:35:45.449Z,22.00
2022-10-19T19:38:13.790Z,21.90
2022-10-19T19:40:42.155Z,21.90
2022-10-19T19:43:09.853Z,21.90
2022-10-19T19:45:37.398Z,21.90
2022-10-19T19:48:05.539Z,21.80
2022-10-19T19:50:32.877Z,21.90
2022-10-19T19:53:00.496Z,21.80
2022-10-19T19:55:27.676Z,21.80
2022-10-19T19:57:55.164Z,21.80
2022-10-19T20:00:23.016Z,21.80
2022-10-19T20:02:55.493Z,21.80
2022-10-19T20:05:22.873Z,21.80
2022-10-19T20:07:50.055Z,21.80
2022-10-19T20:10:17.041Z,21.80
2022-10-19T20:12:45.336Z,21.70
2022-10-19T20:15:15.020Z,21.70
2022-10-19T20:17:42.015Z,21.70
2022-10-19T20:20:10.863Z,21.80
2022-10-19T20:22:38.321Z,21.70
2022-10-19T20:25:06.266Z,21.70
2022-10-19T20:27:36.617Z,21.70
2022-10-19T20:30:04.457Z,21.70
2022-10-19T20:32:31.359Z,21.70
2022-10-19T20:34:58.027Z,21.70
2022-10-19T20:37:25.990Z,21.70
2022-10-19T20:39:52.831Z,21.70
2022-10-19T20:42:19.541Z,21.70
2022-10-19T20:44:46.191Z,21.70
2022-10-19T20:47:12.918Z,21.70
2022-10-19T20:49:40.797Z,21.60
2022-10-19T20:52:07.742Z,21.70
2022-10-19T20:54:35.706Z,21.60
2022-10-19T20:57:02.533Z,21.60
2022-10-19T20:59:30.368Z,21.60
2022-10-19T21:01:57.851Z,21.60
2022-10-19T21:04:25.683Z,21.60
2022-10-19T21:06:53.034Z,21.60
2022-10-19T21:09:22.492Z,21.60
2022-10-19T21:11:50.857Z,21.60
2022-10-19T21:14:21.238Z,21.60
2022-10-19T21:16:51.172Z,21.60
2022-10-19T21:19:20.309Z,21.60
2022-10-19T21:21:55.270Z,21.60
2022-10-19T21:24:24.543Z,21.60
2022-10-19T21:29:23.280Z,21.50
2022-10-19T21:31:52.806Z,21.60
2022-10-19T21:34:22.012Z,21.60
2022-10-19T21:36:49.140Z,21.60
2022-10-19T21:39:16.521Z,21.60
2022-10-19T21:41:43.480Z,21.70
2022-10-19T21:44:10.256Z,21.70
2022-10-19T21:46:36.924Z,21.80
2022-10-19T21:49:04.028Z,21.80
2022-10-19T21:51:46.483Z,21.90
2022-10-19T21:54:18.673Z,21.90
2022-10-19T21:56:45.737Z,22.00
2022-10-19T21:59:13.048Z,22.00
2022-10-19T22:01:41.627Z,22.00
2022-10-19T22:04:15.500Z,22.10
2022-10-19T22:06:42.624Z,22.10
2022-10-19T22:09:12.300Z,22.10
2022-10-19T22:11:39.342Z,22.10
2022-10-19T22:14:06.068Z,22.10
2022-10-19T22:16:33.602Z,22.20
2022-10-19T22:19:00.464Z,22.20
2022-10-19T22:21:29.960Z,22.20
2022-10-19T22:24:00.508Z,22.20
2022-10-19T22:26:36.202Z,22.20
2022-10-19T22:29:04.461Z,22.30
2022-10-19T22:31:31.932Z,22.20
2022-10-19T22:34:01.538Z,22.30
2022-10-19T22:36:28.311Z,22.30
2022-10-19T22:38:55.182Z,22.30
2022-10-19T22:41:22.066Z,22.30
2022-10-19T22:43:48.727Z,22.30
2022-10-19T22:46:15.424Z,22.30
2022-10-19T22:48:42.132Z,22.30
2022-10-19T22:51:08.802Z,22.30
2022-10-19T22:53:35.501Z,22.30
2022-10-19T22:56:02.439Z,22.30
2022-10-19T22:58:29.124Z,22.30
2022-10-19T23:01:21.848Z,22.30
2022-10-19T23:03:48.621Z,22.40
2022-10-19T23:06:15.923Z,22.40
2022-10-19T23:08:44.133Z,22.40
2022-10-19T23:11:11.354Z,22.40
2022-10-19T23:13:38.144Z,22.40
2022-10-19T23:16:05.334Z,22.40
2022-10-19T23:18:37.254Z,22.40
2022-10-19T23:21:12.152Z,22.40
2022-10-19T23:23:39.586Z,22.40
2022-10-19T23:26:07.797Z,22.40
2022-10-19T23:28:35.921Z,22.40
2022-10-19T23:31:08.971Z,22.40
2022-10-19T23:33:36.442Z,22.40
2022-10-19T23:36:04.148Z,22.40
2022-10-19T23:38:30.882Z,22.40
2022-10-19T23:40:57.536Z,22.40
2022-10-19T23:43:24.299Z,22.40
2022-10-19T23:45:51.154Z,22.40
2022-10-19T23:48:18.131Z,22.40
2022-10-19T23:50:44.945Z,22.40
2022-10-19T23:53:11.786Z,22.40
2022-10-19T23:55:38.440Z,22.40
2022-10-19T23:58:05.133Z,22.40
